sensor_id;sensor_type;location;lat;lon;timestamp;pressure;altitude;pressure_sealevel;temperature;humidity
5814;BME280;2933;52.302;8.134;2023-08-12T00:00:53;100741.16;;;20.18;100.00
5814;BME280;2933;52.302;8.134;2023-08-12T00:05:57;100741.06;;;20.10;100.00
5814;BME280;2933;52.302;8.134;2023-08-12T00:11:01;100750.69;;;20.11;100.00
5814;BME280;2933;52.302;8.134;2023-08-12T00:16:07;100771.78;;;20.13;100.00
5814;BME280;2933;52.302;8.134;2023-08-12T00:21:17;100784.28;;;19.93;100.00
5814;BME280;2933;52.302;8.134;2023-08-12T00:26:23;100788.94;;;19.81;100.00
5814;BME280;2933;52.302;8.134;2023-08-12T00:31:32;100759.66;;;19.73;100.00
5814;BME280;2933;52.302;8.134;2023-08-12T00:36:45;100765.34;;;19.88;100.00
5814;BME280;2933;52.302;8.134;2023-08-12T00:41:52;100710.41;;;19.52;100.00
5814;BME280;2933;52.302;8.134;2023-08-12T00:46:54;100751.28;;;19.77;100.00
5814;BME280;2933;52.302;8.134;2023-08-12T00:52:01;100714.03;;;19.51;100.00
5814;BME280;2933;52.302;8.134;2023-08-12T00:57:10;100703.44;;;19.51;100.00
5814;BME280;2933;52.302;8.134;2023-08-12T01:02:18;100753.38;;;19.83;100.00
5814;BME280;2933;52.302;8.134;2023-08-12T01:07:25;100720.81;;;19.63;100.00
5814;BME280;2933;52.302;8.134;2023-08-12T01:12:49;100715.13;;;19.58;100.00
5814;BME280;2933;52.302;8.134;2023-08-12T01:17:58;100734.25;;;19.52;100.00
5814;BME280;2933;52.302;8.134;2023-08-12T01:23:14;100721.22;;;19.59;100.00
5814;BME280;2933;52.302;8.134;2023-08-12T01:28:17;100724.84;;;19.58;100.00
5814;BME280;2933;52.302;8.134;2023-08-12T01:33:31;100700.19;;;19.57;100.00
5814;BME280;2933;52.302;8.134;2023-08-12T01:38:45;100673.25;;;19.34;100.00
5814;BME280;2933;52.302;8.134;2023-08-12T01:43:54;100695.53;;;19.41;100.00
5814;BME280;2933;52.302;8.134;2023-08-12T01:48:59;100671.50;;;19.15;100.00
5814;BME280;2933;52.302;8.134;2023-08-12T01:54:14;100657.19;;;19.08;100.00
5814;BME280;2933;52.302;8.134;2023-08-12T01:59:22;100689.56;;;19.29;100.00
5814;BME280;2933;52.302;8.134;2023-08-12T02:04:27;100670.00;;;19.12;100.00
5814;BME280;2933;52.302;8.134;2023-08-12T02:09:36;100678.03;;;19.20;100.00
5814;BME280;2933;52.302;8.134;2023-08-12T02:14:44;100678.00;;;19.30;100.00
5814;BME280;2933;52.302;8.134;2023-08-12T02:20:01;100680.25;;;19.25;100.00
5814;BME280;2933;52.302;8.134;2023-08-12T02:25:11;100640.94;;;18.93;100.00
5814;BME280;2933;52.302;8.134;2023-08-12T02:30:18;100647.91;;;18.94;100.00
5814;BME280;2933;52.302;8.134;2023-08-12T02:35:23;100653.16;;;19.03;100.00
5814;BME280;2933;52.302;8.134;2023-08-12T02:40:41;100648.00;;;19.02;100.00
5814;BME280;2933;52.302;8.134;2023-08-12T02:46:15;100657.34;;;18.96;100.00
5814;BME280;2933;52.302;8.134;2023-08-12T02:51:22;100623.66;;;18.79;100.00
5814;BME280;2933;52.302;8.134;2023-08-12T02:56:54;100619.44;;;18.86;100.00
5814;BME280;2933;52.302;8.134;2023-08-12T03:02:09;100640.91;;;19.02;100.00
5814;BME280;2933;52.302;8.134;2023-08-12T03:07:16;100615.69;;;18.88;100.00
5814;BME280;2933;52.302;8.134;2023-08-12T03:12:24;100630.47;;;19.01;100.00
5814;BME280;2933;52.302;8.134;2023-08-12T03:17:29;100620.00;;;18.99;100.00
5814;BME280;2933;52.302;8.134;2023-08-12T03:22:38;100630.91;;;18.77;100.00
5814;BME280;2933;52.302;8.134;2023-08-12T03:27:49;100600.88;;;18.58;100.00
5814;BME280;2933;52.302;8.134;2023-08-12T03:33:08;100610.06;;;18.64;100.00
5814;BME280;2933;52.302;8.134;2023-08-12T03:38:19;100624.13;;;18.64;100.00
5814;BME280;2933;52.302;8.134;2023-08-12T03:43:23;100588.38;;;18.50;100.00
5814;BME280;2933;52.302;8.134;2023-08-12T03:48:31;100636.19;;;18.86;100.00
5814;BME280;2933;52.302;8.134;2023-08-12T03:53:49;100590.03;;;18.51;100.00
5814;BME280;2933;52.302;8.134;2023-08-12T03:59:11;100594.00;;;18.75;100.00
5814;BME280;2933;52.302;8.134;2023-08-12T04:04:28;100619.63;;;18.74;100.00
5814;BME280;2933;52.302;8.134;2023-08-12T04:09:35;100601.25;;;18.73;100.00
5814;BME280;2933;52.302;8.134;2023-08-12T04:14:46;100641.16;;;18.89;100.00
5814;BME280;2933;52.302;8.134;2023-08-12T04:20:07;100596.56;;;18.57;100.00
5814;BME280;2933;52.302;8.134;2023-08-12T04:25:14;100597.09;;;18.61;100.00
5814;BME280;2933;52.302;8.134;2023-08-12T04:30:20;100628.97;;;18.79;100.00
5814;BME280;2933;52.302;8.134;2023-08-12T04:35:34;100585.31;;;18.55;100.00
5814;BME280;2933;52.302;8.134;2023-08-12T04:40:47;100582.88;;;18.71;100.00
5814;BME280;2933;52.302;8.134;2023-08-12T04:45:56;100615.28;;;18.93;100.00
5814;BME280;2933;52.302;8.134;2023-08-12T04:51:03;100584.66;;;18.81;100.00
5814;BME280;2933;52.302;8.134;2023-08-12T04:56:11;100558.22;;;18.71;100.00
5814;BME280;2933;52.302;8.134;2023-08-12T05:01:15;100563.59;;;18.89;100.00
5814;BME280;2933;52.302;8.134;2023-08-12T05:06:35;100580.28;;;18.89;100.00
5814;BME280;2933;52.302;8.134;2023-08-12T05:11:43;100578.78;;;18.97;100.00
5814;BME280;2933;52.302;8.134;2023-08-12T05:17:13;100545.53;;;18.74;100.00
5814;BME280;2933;52.302;8.134;2023-08-12T05:22:20;100571.38;;;19.00;100.00
5814;BME280;2933;52.302;8.134;2023-08-12T05:27:26;100555.22;;;19.03;100.00
5814;BME280;2933;52.302;8.134;2023-08-12T05:32:36;100555.78;;;18.97;100.00
5814;BME280;2933;52.302;8.134;2023-08-12T05:37:44;100543.75;;;19.03;100.00
5814;BME280;2933;52.302;8.134;2023-08-12T05:42:52;100519.41;;;18.99;100.00
5814;BME280;2933;52.302;8.134;2023-08-12T05:48:05;100554.88;;;19.34;100.00
5814;BME280;2933;52.302;8.134;2023-08-12T05:53:13;100534.09;;;19.40;100.00
5814;BME280;2933;52.302;8.134;2023-08-12T05:58:21;100560.22;;;19.70;100.00
5814;BME280;2933;52.302;8.134;2023-08-12T06:03:39;100549.91;;;19.67;100.00
5814;BME280;2933;52.302;8.134;2023-08-12T06:08:50;100547.09;;;19.69;100.00
5814;BME280;2933;52.302;8.134;2023-08-12T06:13:58;100529.91;;;19.55;100.00
5814;BME280;2933;52.302;8.134;2023-08-12T06:19:28;100521.81;;;19.38;100.00
5814;BME280;2933;52.302;8.134;2023-08-12T06:24:41;100543.03;;;19.75;100.00
5814;BME280;2933;52.302;8.134;2023-08-12T06:30:06;100543.09;;;19.83;100.00
5814;BME280;2933;52.302;8.134;2023-08-12T06:35:45;100518.34;;;19.92;100.00
5814;BME280;2933;52.302;8.134;2023-08-12T06:40:55;100523.75;;;20.09;100.00
5814;BME280;2933;52.302;8.134;2023-08-12T06:46:10;100521.97;;;20.09;100.00
5814;BME280;2933;52.302;8.134;2023-08-12T06:51:28;100497.88;;;20.02;100.00
5814;BME280;2933;52.302;8.134;2023-08-12T06:56:38;100506.34;;;20.06;100.00
5814;BME280;2933;52.302;8.134;2023-08-12T07:01:54;100519.94;;;20.29;100.00
5814;BME280;2933;52.302;8.134;2023-08-12T07:07:17;100499.63;;;20.46;100.00
5814;BME280;2933;52.302;8.134;2023-08-12T07:12:19;100497.78;;;20.73;100.00
5814;BME280;2933;52.302;8.134;2023-08-12T07:17:25;100517.88;;;20.76;100.00
5814;BME280;2933;52.302;8.134;2023-08-12T07:22:44;100476.75;;;20.54;100.00
5814;BME280;2933;52.302;8.134;2023-08-12T07:27:53;100524.22;;;20.83;100.00
5814;BME280;2933;52.302;8.134;2023-08-12T07:33:12;100503.31;;;20.88;100.00
5814;BME280;2933;52.302;8.134;2023-08-12T07:38:31;100527.22;;;20.88;100.00
5814;BME280;2933;52.302;8.134;2023-08-12T07:43:48;100522.25;;;20.59;100.00
5814;BME280;2933;52.302;8.134;2023-08-12T07:48:51;100485.69;;;20.44;100.00
5814;BME280;2933;52.302;8.134;2023-08-12T07:54:08;100509.34;;;20.64;100.00
5814;BME280;2933;52.302;8.134;2023-08-12T07:59:16;100504.34;;;20.61;100.00
5814;BME280;2933;52.302;8.134;2023-08-12T08:04:24;100495.03;;;20.57;100.00
5814;BME280;2933;52.302;8.134;2023-08-12T08:09:47;100460.59;;;20.30;100.00
5814;BME280;2933;52.302;8.134;2023-08-12T08:14:57;100465.91;;;20.30;100.00
5814;BME280;2933;52.302;8.134;2023-08-12T08:20:17;100508.72;;;20.44;100.00
5814;BME280;2933;52.302;8.134;2023-08-12T08:25:31;100473.78;;;20.22;100.00
5814;BME280;2933;52.302;8.134;2023-08-12T08:30:34;100448.97;;;19.97;100.00
5814;BME280;2933;52.302;8.134;2023-08-12T08:35:40;100461.63;;;20.11;100.00
5814;BME280;2933;52.302;8.134;2023-08-12T08:41:16;100462.38;;;20.30;100.00
5814;BME280;2933;52.302;8.134;2023-08-12T08:46:35;100429.66;;;20.13;100.00
5814;BME280;2933;52.302;8.134;2023-08-12T08:51:46;100447.09;;;20.24;100.00
5814;BME280;2933;52.302;8.134;2023-08-12T08:57:09;100465.47;;;20.17;100.00
5814;BME280;2933;52.302;8.134;2023-08-12T09:02:22;100432.97;;;20.15;100.00
5814;BME280;2933;52.302;8.134;2023-08-12T09:07:33;100448.31;;;20.29;100.00
5814;BME280;2933;52.302;8.134;2023-08-12T09:12:56;100431.53;;;20.29;100.00
5814;BME280;2933;52.302;8.134;2023-08-12T09:18:01;100442.28;;;20.54;100.00
5814;BME280;2933;52.302;8.134;2023-08-12T09:34:57;100460.31;;;20.42;100.00
5814;BME280;2933;52.302;8.134;2023-08-12T09:40:19;100430.66;;;20.20;100.00
5814;BME280;2933;52.302;8.134;2023-08-12T09:45:35;100450.50;;;20.34;100.00
5814;BME280;2933;52.302;8.134;2023-08-12T09:50:49;100447.97;;;20.24;100.00
5814;BME280;2933;52.302;8.134;2023-08-12T09:55:55;100443.00;;;20.29;100.00
5814;BME280;2933;52.302;8.134;2023-08-12T10:01:04;100449.69;;;20.07;100.00
5814;BME280;2933;52.302;8.134;2023-08-12T10:06:10;100445.88;;;20.10;100.00
5814;BME280;2933;52.302;8.134;2023-08-12T10:11:15;100447.22;;;20.14;100.00
5814;BME280;2933;52.302;8.134;2023-08-12T10:16:19;100423.94;;;19.99;100.00
5814;BME280;2933;52.302;8.134;2023-08-12T10:21:29;100441.34;;;20.28;100.00
5814;BME280;2933;52.302;8.134;2023-08-12T10:26:34;100427.38;;;20.53;100.00
5814;BME280;2933;52.302;8.134;2023-08-12T10:31:40;100409.78;;;20.60;100.00
5814;BME280;2933;52.302;8.134;2023-08-12T10:36:46;100409.31;;;20.64;100.00
5814;BME280;2933;52.302;8.134;2023-08-12T10:41:51;100404.19;;;20.71;100.00
5814;BME280;2933;52.302;8.134;2023-08-12T10:46:56;100370.09;;;20.50;100.00
5814;BME280;2933;52.302;8.134;2023-08-12T10:52:01;100404.72;;;20.75;100.00
5814;BME280;2933;52.302;8.134;2023-08-12T10:57:11;100408.53;;;20.72;100.00
5814;BME280;2933;52.302;8.134;2023-08-12T11:02:21;100410.28;;;20.55;100.00
5814;BME280;2933;52.302;8.134;2023-08-12T11:07:38;100404.59;;;20.50;100.00
5814;BME280;2933;52.302;8.134;2023-08-12T11:12:42;100407.13;;;20.60;100.00
5814;BME280;2933;52.302;8.134;2023-08-12T11:17:47;100403.69;;;20.67;100.00
5814;BME280;2933;52.302;8.134;2023-08-12T11:22:50;100392.03;;;20.52;100.00
5814;BME280;2933;52.302;8.134;2023-08-12T11:27:52;100381.34;;;20.36;100.00
5814;BME280;2933;52.302;8.134;2023-08-12T11:32:54;100388.97;;;20.39;100.00
5814;BME280;2933;52.302;8.134;2023-08-12T11:37:58;100371.84;;;20.25;100.00
5814;BME280;2933;52.302;8.134;2023-08-12T11:43:01;100389.09;;;20.29;100.00
5814;BME280;2933;52.302;8.134;2023-08-12T11:48:04;100390.25;;;20.26;100.00
5814;BME280;2933;52.302;8.134;2023-08-12T11:53:07;100378.16;;;20.24;100.00
5814;BME280;2933;52.302;8.134;2023-08-12T11:58:15;100390.31;;;20.34;100.00
5814;BME280;2933;52.302;8.134;2023-08-12T12:03:19;100383.19;;;20.43;100.00
5814;BME280;2933;52.302;8.134;2023-08-12T12:08:23;100382.34;;;21.02;100.00
5814;BME280;2933;52.302;8.134;2023-08-12T12:13:25;100382.84;;;21.55;100.00
5814;BME280;2933;52.302;8.134;2023-08-12T12:18:27;100364.47;;;21.62;100.00
5814;BME280;2933;52.302;8.134;2023-08-12T12:23:31;100365.09;;;21.64;100.00
5814;BME280;2933;52.302;8.134;2023-08-12T12:28:34;100350.97;;;21.47;100.00
5814;BME280;2933;52.302;8.134;2023-08-12T12:33:36;100364.63;;;21.27;100.00
5814;BME280;2933;52.302;8.134;2023-08-12T12:38:39;100356.31;;;21.14;100.00
5814;BME280;2933;52.302;8.134;2023-08-12T12:43:44;100349.34;;;21.13;100.00
5814;BME280;2933;52.302;8.134;2023-08-12T12:48:45;100361.13;;;21.35;100.00
5814;BME280;2933;52.302;8.134;2023-08-12T12:53:48;100372.75;;;21.59;100.00
5814;BME280;2933;52.302;8.134;2023-08-12T12:58:50;100371.72;;;21.76;100.00
5814;BME280;2933;52.302;8.134;2023-08-12T13:03:51;100371.84;;;21.91;100.00
5814;BME280;2933;52.302;8.134;2023-08-12T13:08:58;100383.94;;;22.10;100.00
5814;BME280;2933;52.302;8.134;2023-08-12T13:14:00;100377.88;;;21.77;100.00
5814;BME280;2933;52.302;8.134;2023-08-12T13:19:02;100390.81;;;21.88;100.00
5814;BME280;2933;52.302;8.134;2023-08-12T13:24:06;100381.13;;;22.52;100.00
5814;BME280;2933;52.302;8.134;2023-08-12T13:29:07;100387.78;;;22.79;100.00
5814;BME280;2933;52.302;8.134;2023-08-12T13:34:09;100378.88;;;22.64;100.00
5814;BME280;2933;52.302;8.134;2023-08-12T13:39:12;100362.56;;;22.67;100.00
5814;BME280;2933;52.302;8.134;2023-08-12T13:44:13;100377.13;;;23.02;100.00
5814;BME280;2933;52.302;8.134;2023-08-12T13:49:16;100368.81;;;22.51;100.00
5814;BME280;2933;52.302;8.134;2023-08-12T13:54:24;100387.53;;;22.66;100.00
5814;BME280;2933;52.302;8.134;2023-08-12T13:59:26;100385.31;;;22.46;100.00
5814;BME280;2933;52.302;8.134;2023-08-12T14:04:28;100386.91;;;22.16;100.00
5814;BME280;2933;52.302;8.134;2023-08-12T14:09:33;100394.16;;;21.82;100.00
5814;BME280;2933;52.302;8.134;2023-08-12T14:14:37;100418.41;;;21.87;100.00
5814;BME280;2933;52.302;8.134;2023-08-12T14:19:40;100409.44;;;21.80;100.00
5814;BME280;2933;52.302;8.134;2023-08-12T14:24:45;100409.09;;;21.91;100.00
5814;BME280;2933;52.302;8.134;2023-08-12T14:29:50;100372.53;;;21.85;100.00
5814;BME280;2933;52.302;8.134;2023-08-12T14:34:56;100375.09;;;22.18;100.00
5814;BME280;2933;52.302;8.134;2023-08-12T14:40:01;100377.56;;;22.68;100.00
5814;BME280;2933;52.302;8.134;2023-08-12T14:45:08;100388.91;;;23.16;100.00
5814;BME280;2933;52.302;8.134;2023-08-12T14:50:11;100413.69;;;23.17;100.00
5814;BME280;2933;52.302;8.134;2023-08-12T14:55:15;100378.53;;;22.90;100.00
5814;BME280;2933;52.302;8.134;2023-08-12T15:00:18;100370.41;;;22.91;100.00
5814;BME280;2933;52.302;8.134;2023-08-12T15:05:25;100342.97;;;22.59;100.00
5814;BME280;2933;52.302;8.134;2023-08-12T15:10:28;100348.09;;;22.38;100.00
5814;BME280;2933;52.302;8.134;2023-08-12T15:15:30;100381.63;;;21.99;100.00
5814;BME280;2933;52.302;8.134;2023-08-12T15:20:33;100397.09;;;21.95;100.00
5814;BME280;2933;52.302;8.134;2023-08-12T15:25:43;100412.41;;;21.93;100.00
5814;BME280;2933;52.302;8.134;2023-08-12T15:30:47;100411.91;;;21.90;100.00
5814;BME280;2933;52.302;8.134;2023-08-12T15:35:52;100396.19;;;21.63;100.00
5814;BME280;2933;52.302;8.134;2023-08-12T15:40:55;100426.41;;;21.62;100.00
5814;BME280;2933;52.302;8.134;2023-08-12T15:45:57;100435.56;;;21.60;100.00
5814;BME280;2933;52.302;8.134;2023-08-12T15:51:00;100428.41;;;21.60;100.00
5814;BME280;2933;52.302;8.134;2023-08-12T15:56:04;100433.03;;;21.75;100.00
5814;BME280;2933;52.302;8.134;2023-08-12T16:01:05;100421.25;;;21.69;100.00
5814;BME280;2933;52.302;8.134;2023-08-12T16:06:09;100442.84;;;21.91;100.00
5814;BME280;2933;52.302;8.134;2023-08-12T16:11:13;100439.28;;;22.15;100.00
5814;BME280;2933;52.302;8.134;2023-08-12T16:16:15;100437.72;;;22.29;100.00
5814;BME280;2933;52.302;8.134;2023-08-12T16:21:17;100443.22;;;22.44;100.00
5814;BME280;2933;52.302;8.134;2023-08-12T16:26:20;100453.06;;;22.27;100.00
5814;BME280;2933;52.302;8.134;2023-08-12T16:31:21;100457.25;;;22.13;100.00
5814;BME280;2933;52.302;8.134;2023-08-12T16:36:23;100466.91;;;22.06;98.42
5814;BME280;2933;52.302;8.134;2023-08-12T16:41:26;100484.19;;;22.02;89.74
5814;BME280;2933;52.302;8.134;2023-08-12T16:46:28;100481.38;;;21.87;92.27
5814;BME280;2933;52.302;8.134;2023-08-12T16:51:30;100492.69;;;21.97;94.36
5814;BME280;2933;52.302;8.134;2023-08-12T16:56:32;100496.34;;;21.88;92.18
5814;BME280;2933;52.302;8.134;2023-08-12T17:01:34;100496.84;;;21.75;89.81
5814;BME280;2933;52.302;8.134;2023-08-12T17:06:36;100498.50;;;21.59;89.99
5814;BME280;2933;52.302;8.134;2023-08-12T17:11:39;100507.63;;;21.57;93.85
5814;BME280;2933;52.302;8.134;2023-08-12T17:16:40;100501.13;;;21.43;93.39
5814;BME280;2933;52.302;8.134;2023-08-12T17:21:42;100509.75;;;21.53;92.06
5814;BME280;2933;52.302;8.134;2023-08-12T17:26:45;100498.47;;;21.35;94.65
5814;BME280;2933;52.302;8.134;2023-08-12T17:31:47;100514.56;;;21.33;94.39
5814;BME280;2933;52.302;8.134;2023-08-12T17:36:48;100520.03;;;21.31;93.64
5814;BME280;2933;52.302;8.134;2023-08-12T17:41:51;100513.06;;;21.22;97.48
5814;BME280;2933;52.302;8.134;2023-08-12T17:46:53;100508.41;;;21.33;92.72
5814;BME280;2933;52.302;8.134;2023-08-12T17:51:54;100520.66;;;21.17;97.61
5814;BME280;2933;52.302;8.134;2023-08-12T17:56:57;100529.56;;;20.99;99.09
5814;BME280;2933;52.302;8.134;2023-08-12T18:01:59;100518.72;;;20.85;100.00
5814;BME280;2933;52.302;8.134;2023-08-12T18:07:00;100535.25;;;20.70;100.00
5814;BME280;2933;52.302;8.134;2023-08-12T18:12:03;100535.59;;;20.41;100.00
5814;BME280;2933;52.302;8.134;2023-08-12T18:17:06;100518.28;;;20.10;100.00
5814;BME280;2933;52.302;8.134;2023-08-12T18:22:07;100549.34;;;19.92;100.00
5814;BME280;2933;52.302;8.134;2023-08-12T18:27:10;100548.78;;;19.70;100.00
5814;BME280;2933;52.302;8.134;2023-08-12T18:32:12;100557.00;;;19.49;100.00
5814;BME280;2933;52.302;8.134;2023-08-12T18:37:14;100558.31;;;19.45;100.00
5814;BME280;2933;52.302;8.134;2023-08-12T18:42:17;100576.91;;;19.07;100.00
5814;BME280;2933;52.302;8.134;2023-08-12T18:47:18;100556.63;;;18.88;100.00
5814;BME280;2933;52.302;8.134;2023-08-12T18:52:20;100572.66;;;18.96;100.00
5814;BME280;2933;52.302;8.134;2023-08-12T18:57:23;100586.91;;;18.76;100.00
5814;BME280;2933;52.302;8.134;2023-08-12T19:02:25;100582.94;;;18.52;100.00
5814;BME280;2933;52.302;8.134;2023-08-12T19:07:26;100586.13;;;18.55;100.00
5814;BME280;2933;52.302;8.134;2023-08-12T19:12:29;100591.88;;;18.31;100.00
5814;BME280;2933;52.302;8.134;2023-08-12T19:17:31;100596.88;;;18.34;100.00
5814;BME280;2933;52.302;8.134;2023-08-12T19:22:44;100568.38;;;17.99;100.00
5814;BME280;2933;52.302;8.134;2023-08-12T19:27:47;100608.31;;;18.05;100.00
5814;BME280;2933;52.302;8.134;2023-08-12T19:32:50;100604.56;;;17.98;100.00
5814;BME280;2933;52.302;8.134;2023-08-12T19:37:54;100595.03;;;17.66;100.00
5814;BME280;2933;52.302;8.134;2023-08-12T19:43:00;100604.63;;;17.57;100.00
5814;BME280;2933;52.302;8.134;2023-08-12T19:48:01;100609.63;;;17.51;100.00
5814;BME280;2933;52.302;8.134;2023-08-12T19:53:03;100609.81;;;17.28;100.00
5814;BME280;2933;52.302;8.134;2023-08-12T19:58:07;100625.06;;;17.46;100.00
5814;BME280;2933;52.302;8.134;2023-08-12T20:03:08;100622.81;;;17.41;100.00
5814;BME280;2933;52.302;8.134;2023-08-12T20:08:10;100625.56;;;17.30;100.00
5814;BME280;2933;52.302;8.134;2023-08-12T20:13:14;100624.41;;;17.22;100.00
5814;BME280;2933;52.302;8.134;2023-08-12T20:18:15;100631.13;;;17.05;100.00
5814;BME280;2933;52.302;8.134;2023-08-12T20:23:17;100620.44;;;17.07;100.00
5814;BME280;2933;52.302;8.134;2023-08-12T20:28:20;100630.31;;;17.05;100.00
5814;BME280;2933;52.302;8.134;2023-08-12T20:33:22;100642.81;;;17.03;100.00
5814;BME280;2933;52.302;8.134;2023-08-12T20:38:24;100627.09;;;17.01;100.00
5814;BME280;2933;52.302;8.134;2023-08-12T20:43:26;100633.91;;;17.04;100.00
5814;BME280;2933;52.302;8.134;2023-08-12T20:48:28;100626.09;;;16.71;100.00
5814;BME280;2933;52.302;8.134;2023-08-12T20:53:30;100634.13;;;16.70;100.00
5814;BME280;2933;52.302;8.134;2023-08-12T20:58:34;100644.50;;;16.61;100.00
5814;BME280;2933;52.302;8.134;2023-08-12T21:03:35;100642.00;;;16.60;100.00
5814;BME280;2933;52.302;8.134;2023-08-12T21:08:37;100641.03;;;16.61;100.00
5814;BME280;2933;52.302;8.134;2023-08-12T21:13:40;100640.47;;;16.67;100.00
5814;BME280;2933;52.302;8.134;2023-08-12T21:18:41;100644.69;;;16.70;100.00
5814;BME280;2933;52.302;8.134;2023-08-12T21:23:43;100643.31;;;16.75;100.00
5814;BME280;2933;52.302;8.134;2023-08-12T21:28:46;100617.22;;;16.51;100.00
5814;BME280;2933;52.302;8.134;2023-08-12T21:33:48;100648.97;;;16.71;100.00
5814;BME280;2933;52.302;8.134;2023-08-12T21:38:49;100638.91;;;16.55;100.00
5814;BME280;2933;52.302;8.134;2023-08-12T21:43:53;100629.63;;;16.39;100.00
5814;BME280;2933;52.302;8.134;2023-08-12T21:48:54;100649.50;;;16.64;100.00
5814;BME280;2933;52.302;8.134;2023-08-12T21:53:56;100640.44;;;16.57;100.00
5814;BME280;2933;52.302;8.134;2023-08-12T21:58:59;100646.09;;;16.53;100.00
5814;BME280;2933;52.302;8.134;2023-08-12T22:04:00;100640.56;;;16.56;100.00
5814;BME280;2933;52.302;8.134;2023-08-12T22:09:03;100605.88;;;16.18;100.00
5814;BME280;2933;52.302;8.134;2023-08-12T22:14:06;100628.66;;;16.19;100.00
5814;BME280;2933;52.302;8.134;2023-08-12T22:19:07;100640.16;;;16.18;100.00
5814;BME280;2933;52.302;8.134;2023-08-12T22:24:09;100645.78;;;16.13;100.00
5814;BME280;2933;52.302;8.134;2023-08-12T22:29:12;100636.00;;;16.04;100.00
5814;BME280;2933;52.302;8.134;2023-08-12T22:34:15;100637.38;;;16.20;100.00
5814;BME280;2933;52.302;8.134;2023-08-12T22:39:16;100627.75;;;16.09;100.00
5814;BME280;2933;52.302;8.134;2023-08-12T22:44:19;100628.34;;;16.01;100.00
5814;BME280;2933;52.302;8.134;2023-08-12T22:49:21;100627.25;;;16.04;100.00
5814;BME280;2933;52.302;8.134;2023-08-12T22:54:22;100613.44;;;15.90;100.00
5814;BME280;2933;52.302;8.134;2023-08-12T22:59:26;100620.34;;;15.91;100.00
5814;BME280;2933;52.302;8.134;2023-08-12T23:04:27;100629.00;;;15.82;100.00
5814;BME280;2933;52.302;8.134;2023-08-12T23:09:29;100619.75;;;15.76;100.00
5814;BME280;2933;52.302;8.134;2023-08-12T23:14:32;100609.41;;;15.63;100.00
5814;BME280;2933;52.302;8.134;2023-08-12T23:19:34;100618.34;;;15.72;100.00
5814;BME280;2933;52.302;8.134;2023-08-12T23:24:35;100606.94;;;15.39;100.00
5814;BME280;2933;52.302;8.134;2023-08-12T23:29:38;100621.03;;;15.49;100.00
5814;BME280;2933;52.302;8.134;2023-08-12T23:34:40;100605.97;;;15.29;100.00
5814;BME280;2933;52.302;8.134;2023-08-12T23:39:42;100628.81;;;15.40;100.00
5814;BME280;2933;52.302;8.134;2023-08-12T23:44:45;100630.25;;;15.44;100.00
5814;BME280;2933;52.302;8.134;2023-08-12T23:49:46;100620.22;;;15.26;100.00
5814;BME280;2933;52.302;8.134;2023-08-12T23:54:49;100597.16;;;14.96;100.00
5814;BME280;2933;52.302;8.134;2023-08-12T23:59:52;100610.06;;;14.88;100.00
